Time;durP1;ratioP1;P1;durP2;ratioP2;P2;SDS_P1;SDS_P2;PMS_P1;PMS_P2;Temp;Humidity;BMP_temperature;BMP_pressure;BME280_temperature;BME280_humidity;BME280_pressure;Samples;Min_cycle;Max_cycle;Signal;HPM_P1;HPM_P2
2023/06/10 00:01:14;;;;;;;11.75;9.15;;;;;;;;;;6311165;22;20034;-84
2023/06/10 00:03:41;;;;;;;14.98;10.35;;;;;;;;;;6310308;22;20049;-84
2023/06/10 00:06:07;;;;;;;10.80;9.35;;;;;;;;;;6283559;22;20007;-84
2023/06/10 00:08:33;;;;;;;17.60;12.00;;;;;;;;;;6282511;22;20025;-84
2023/06/10 00:10:59;;;;;;;12.80;9.48;;;;;;;;;;6308588;22;20435;-84
2023/06/10 00:13:25;;;;;;;14.43;10.02;;;;;;;;;;6282471;22;20015;-84
2023/06/10 00:15:51;;;;;;;13.95;10.50;;;;;;;;;;6282759;22;20026;-83
2023/06/10 00:18:17;;;;;;;15.07;11.63;;;;;;;;;;6282776;22;20019;-84
2023/06/10 00:20:43;;;;;;;18.40;10.55;;;;;;;;;;6282661;22;20090;-84
2023/06/10 00:23:09;;;;;;;13.80;11.82;;;;;;;;;;6281821;22;20065;-84
2023/06/10 00:25:35;;;;;;;14.48;9.48;;;;;;;;;;6282238;22;20014;-84
2023/06/10 00:28:01;;;;;;;17.27;9.95;;;;;;;;;;6309271;22;20026;-84
2023/06/10 00:30:27;;;;;;;15.18;12.63;;;;;;;;;;6281274;22;20019;-84
2023/06/10 00:32:53;;;;;;;13.30;9.80;;;;;;;;;;6310053;22;20047;-82
2023/06/10 00:35:19;;;;;;;9.80;8.18;;;;;;;;;;6281242;22;20125;-84
2023/06/10 00:37:45;;;;;;;13.90;9.50;;;;;;;;;;6281823;22;20011;-84
2023/06/10 00:40:12;;;;;;;12.50;10.02;;;;;;;;;;6281402;22;20007;-84
2023/06/10 00:42:38;;;;;;;14.80;9.90;;;;;;;;;;6283055;22;20007;-83
2023/06/10 00:45:04;;;;;;;15.27;9.43;;;;;;;;;;6282180;22;20029;-84
2023/06/10 00:47:30;;;;;;;13.77;8.77;;;;;;;;;;6309858;22;20047;-84
2023/06/10 00:49:56;;;;;;;15.77;9.15;;;;;;;;;;6281237;22;20012;-83
2023/06/10 00:52:24;;;;;;;11.73;8.95;;;;;;;;;;6282127;22;20082;-84
2023/06/10 00:54:50;;;;;;;13.63;9.07;;;;;;;;;;6280587;22;20031;-84
2023/06/10 00:57:16;;;;;;;13.57;9.23;;;;;;;;;;6282224;22;20018;-84
2023/06/10 00:59:43;;;;;;;12.35;10.30;;;;;;;;;;6281441;22;20053;-84
2023/06/10 01:02:09;;;;;;;15.25;9.65;;;;;;;;;;6309811;22;20076;-85
2023/06/10 01:04:36;;;;;;;13.70;8.80;;;;;;;;;;6282071;22;20018;-83
2023/06/10 01:07:15;;;;;;;11.52;8.45;;;;;;;;;;6258043;22;20040;-84
2023/06/10 01:09:44;;;;;;;12.57;9.50;;;;;;;;;;6258373;22;20069;-83
2023/06/10 01:12:24;;;;;;;14.40;8.68;;;;;;;;;;6283423;22;20047;-84
2023/06/10 01:14:50;;;;;;;11.00;8.63;;;;;;;;;;6257328;22;20019;-84
2023/06/10 01:17:17;;;;;;;12.73;8.55;;;;;;;;;;6255456;22;20007;-84
2023/06/10 01:19:44;;;;;;;13.75;9.30;;;;;;;;;;6281103;22;20126;-84
2023/06/10 01:22:10;;;;;;;15.75;8.95;;;;;;;;;;6309206;22;20024;-85
2023/06/10 01:24:37;;;;;;;14.57;9.70;;;;;;;;;;6255238;22;20015;-84
2023/06/10 01:27:06;;;;;;;10.20;9.15;;;;;;;;;;6282427;22;20015;-84
2023/06/10 01:29:52;;;;;;;13.02;8.45;;;;;;;;;;6281132;22;20007;-84
2023/06/10 01:32:26;;;;;;;13.13;8.88;;;;;;;;;;6280584;22;20363;-84
2023/06/10 01:34:52;;;;;;;12.25;8.82;;;;;;;;;;6281777;22;20011;-84
2023/06/10 01:37:18;;;;;;;13.82;9.63;;;;;;;;;;6280791;22;20086;-84
2023/06/10 01:39:45;;;;;;;9.52;7.78;;;;;;;;;;6279559;22;20090;-85
2023/06/10 01:42:12;;;;;;;13.75;9.02;;;;;;;;;;6255483;22;20018;-84
2023/06/10 01:44:39;;;;;;;10.38;8.90;;;;;;;;;;6255527;22;20090;-84
2023/06/10 01:47:05;;;;;;;12.27;9.38;;;;;;;;;;6280485;22;20012;-84
2023/06/10 01:49:31;;;;;;;11.25;9.27;;;;;;;;;;6308901;22;20019;-84
2023/06/10 01:51:57;;;;;;;15.13;8.98;;;;;;;;;;6308404;22;20026;-83
2023/06/10 01:54:23;;;;;;;11.38;8.30;;;;;;;;;;6280154;22;20019;-84
2023/06/10 01:56:49;;;;;;;10.65;9.27;;;;;;;;;;6281394;22;20495;-84
2023/06/10 01:59:15;;;;;;;12.38;8.30;;;;;;;;;;6280602;22;20015;-83
2023/06/10 02:01:41;;;;;;;13.73;9.00;;;;;;;;;;6255488;22;20018;-83
2023/06/10 02:04:07;;;;;;;12.80;7.82;;;;;;;;;;6281488;22;20007;-85
2023/06/10 02:06:35;;;;;;;11.43;9.05;;;;;;;;;;6281336;22;20010;-84
2023/06/10 02:09:01;;;;;;;12.90;9.32;;;;;;;;;;6255608;22;20011;-83
2023/06/10 02:11:27;;;;;;;15.38;9.80;;;;;;;;;;6308328;22;20058;-84
2023/06/10 02:13:53;;;;;;;11.70;9.20;;;;;;;;;;6254933;22;20011;-84
2023/06/10 02:16:21;;;;;;;11.45;8.35;;;;;;;;;;6279879;22;20414;-83
2023/06/10 02:18:48;;;;;;;14.88;8.32;;;;;;;;;;6307457;22;20011;-84
2023/06/10 02:21:14;;;;;;;12.43;10.77;;;;;;;;;;6307139;22;20391;-83
2023/06/10 02:23:40;;;;;;;12.98;8.95;;;;;;;;;;6280980;22;20019;-83
2023/06/10 02:26:06;;;;;;;13.00;10.57;;;;;;;;;;6254910;22;20026;-84
2023/06/10 02:28:32;;;;;;;13.52;11.82;;;;;;;;;;6280821;22;20015;-84
2023/06/10 02:30:59;;;;;;;12.85;8.57;;;;;;;;;;6254063;22;20015;-83
2023/06/10 02:33:25;;;;;;;12.55;10.77;;;;;;;;;;6254315;22;20015;-84
2023/06/10 02:35:51;;;;;;;11.65;9.70;;;;;;;;;;6254270;22;20094;-84
2023/06/10 02:38:18;;;;;;;10.95;8.55;;;;;;;;;;6254508;22;20011;-84
2023/06/10 02:40:44;;;;;;;14.07;11.35;;;;;;;;;;6281045;22;20011;-84
2023/06/10 02:43:10;;;;;;;12.75;9.85;;;;;;;;;;6280908;22;20410;-84
2023/06/10 02:45:36;;;;;;;13.18;11.02;;;;;;;;;;6254661;22;20015;-84
2023/06/10 02:48:02;;;;;;;16.17;8.70;;;;;;;;;;6307585;22;20049;-84
2023/06/10 02:50:28;;;;;;;14.30;9.73;;;;;;;;;;6279693;22;20015;-84
2023/06/10 02:52:54;;;;;;;14.18;10.35;;;;;;;;;;6307642;22;20015;-84
2023/06/10 02:55:21;;;;;;;15.90;12.18;;;;;;;;;;6281254;22;20019;-84
2023/06/10 02:57:47;;;;;;;11.52;10.32;;;;;;;;;;6282634;22;20066;-84
2023/06/10 03:00:14;;;;;;;14.60;11.68;;;;;;;;;;6282237;22;20008;-84
2023/06/10 03:02:40;;;;;;;15.18;12.68;;;;;;;;;;6257414;22;20015;-84
2023/06/10 03:05:09;;;;;;;15.77;12.77;;;;;;;;;;6256406;22;20503;-84
2023/06/10 03:07:36;;;;;;;12.95;11.60;;;;;;;;;;6282572;22;20190;-84
2023/06/10 03:10:02;;;;;;;13.02;11.73;;;;;;;;;;6257147;22;20011;-83
2023/06/10 03:12:28;;;;;;;17.08;15.20;;;;;;;;;;6310148;22;20134;-84
2023/06/10 03:14:54;;;;;;;15.70;14.20;;;;;;;;;;6282453;22;20011;-84
2023/06/10 03:17:20;;;;;;;16.10;14.18;;;;;;;;;;6282423;22;20017;-83
2023/06/10 03:19:46;;;;;;;15.70;13.50;;;;;;;;;;6259537;22;20394;-83
2023/06/10 03:22:16;;;;;;;16.70;14.00;;;;;;;;;;6285049;22;20014;-84
2023/06/10 03:24:43;;;;;;;15.32;11.93;;;;;;;;;;6311603;22;20011;-85
2023/06/10 03:27:10;;;;;;;18.67;12.32;;;;;;;;;;6311245;22;20322;-84
2023/06/10 03:29:37;;;;;;;15.95;14.35;;;;;;;;;;6282879;22;20022;-84
2023/06/10 03:32:03;;;;;;;16.33;11.35;;;;;;;;;;6310739;22;20015;-84
2023/06/10 03:34:32;;;;;;;17.35;14.13;;;;;;;;;;6282002;22;20015;-83
2023/06/10 03:36:58;;;;;;;18.13;12.77;;;;;;;;;;6281326;22;20065;-84
2023/06/10 03:39:25;;;;;;;14.52;12.73;;;;;;;;;;6309900;22;20330;-83
2023/06/10 03:41:51;;;;;;;17.38;13.30;;;;;;;;;;6283521;22;20046;-83
2023/06/10 03:44:17;;;;;;;20.60;10.82;;;;;;;;;;6256424;22;20007;-84
2023/06/10 03:46:43;;;;;;;17.40;13.50;;;;;;;;;;6256209;22;20030;-84
2023/06/10 03:49:09;;;;;;;13.85;11.27;;;;;;;;;;6281459;22;20014;-84
2023/06/10 03:51:36;;;;;;;16.98;14.63;;;;;;;;;;6282573;22;20021;-83
2023/06/10 03:54:02;;;;;;;14.82;12.13;;;;;;;;;;6281064;22;20095;-84
2023/06/10 03:56:28;;;;;;;15.55;11.20;;;;;;;;;;6308823;22;20519;-83
2023/06/10 03:58:55;;;;;;;14.55;11.60;;;;;;;;;;6308780;22;20160;-84
2023/06/10 04:01:23;;;;;;;18.42;11.57;;;;;;;;;;6280859;22;20008;-84
2023/06/10 04:03:51;;;;;;;15.02;12.23;;;;;;;;;;6308514;22;20060;-84
2023/06/10 04:06:17;;;;;;;16.92;11.82;;;;;;;;;;6256130;22;20454;-83
2023/06/10 04:08:43;;;;;;;17.20;15.10;;;;;;;;;;6308692;22;20450;-83
2023/06/10 04:11:09;;;;;;;14.68;12.57;;;;;;;;;;6281019;22;20078;-84
2023/06/10 04:13:36;;;;;;;21.23;18.65;;;;;;;;;;6280881;22;20022;-82
2023/06/10 04:16:02;;;;;;;20.58;11.82;;;;;;;;;;6280664;22;20016;-83
2023/06/10 04:18:28;;;;;;;17.23;13.68;;;;;;;;;;6307799;22;20022;-84
2023/06/10 04:20:55;;;;;;;16.67;11.10;;;;;;;;;;6281306;22;20090;-83
2023/06/10 04:23:21;;;;;;;19.90;16.17;;;;;;;;;;6256371;22;20016;-83
2023/06/10 04:25:47;;;;;;;21.00;13.38;;;;;;;;;;6280980;22;20342;-84
2023/06/10 04:28:13;;;;;;;18.50;13.18;;;;;;;;;;6280630;22;20026;-83
2023/06/10 04:30:39;;;;;;;18.10;13.85;;;;;;;;;;6255863;22;20345;-84
2023/06/10 04:33:06;;;;;;;19.55;16.67;;;;;;;;;;6281559;22;20057;-85
2023/06/10 04:35:33;;;;;;;16.05;12.77;;;;;;;;;;6280633;22;20062;-83
2023/06/10 04:37:59;;;;;;;16.08;12.32;;;;;;;;;;6254154;22;20463;-84
2023/06/10 04:40:25;;;;;;;21.08;15.23;;;;;;;;;;6280974;22;20107;-84
2023/06/10 04:42:51;;;;;;;18.52;12.85;;;;;;;;;;6282883;22;20090;-86
2023/06/10 04:45:17;;;;;;;14.98;10.55;;;;;;;;;;6281263;22;20011;-83
2023/06/10 04:47:43;;;;;;;18.15;11.15;;;;;;;;;;6280722;22;20007;-83
2023/06/10 04:50:09;;;;;;;19.30;11.60;;;;;;;;;;6281712;22;20423;-85
2023/06/10 04:52:35;;;;;;;21.67;13.35;;;;;;;;;;6281747;22;20077;-83
2023/06/10 04:55:02;;;;;;;15.73;10.43;;;;;;;;;;6308671;22;20457;-85
2023/06/10 04:57:28;;;;;;;15.07;10.68;;;;;;;;;;6308412;22;20015;-85
2023/06/10 04:59:54;;;;;;;23.35;10.80;;;;;;;;;;6307714;22;20046;-84
2023/06/10 05:02:20;;;;;;;14.88;9.95;;;;;;;;;;6280758;22;20142;-85
2023/06/10 05:04:46;;;;;;;20.95;11.20;;;;;;;;;;6308388;22;20062;-84
2023/06/10 05:07:12;;;;;;;16.77;10.27;;;;;;;;;;6255151;22;20015;-85
2023/06/10 05:09:38;;;;;;;20.83;11.40;;;;;;;;;;6280748;22;20023;-84
2023/06/10 05:12:05;;;;;;;20.08;11.23;;;;;;;;;;6280326;22;20114;-83
2023/06/10 05:14:31;;;;;;;20.05;14.35;;;;;;;;;;6254317;22;20365;-85
2023/06/10 05:16:57;;;;;;;23.55;19.77;;;;;;;;;;6281070;22;20015;-84
2023/06/10 05:19:23;;;;;;;17.90;9.80;;;;;;;;;;6281802;22;20385;-83
2023/06/10 05:21:49;;;;;;;15.38;10.98;;;;;;;;;;6280013;22;20015;-84
2023/06/10 05:24:15;;;;;;;14.40;7.65;;;;;;;;;;6306930;22;20056;-83
2023/06/10 05:26:41;;;;;;;20.25;10.73;;;;;;;;;;6306511;22;20086;-83
2023/06/10 05:29:09;;;;;;;17.08;14.45;;;;;;;;;;6277878;22;20015;-83
2023/06/10 05:31:35;;;;;;;15.27;13.35;;;;;;;;;;6278181;22;20015;-84
2023/06/10 05:34:01;;;;;;;20.30;13.80;;;;;;;;;;6307663;22;20081;-82
2023/06/10 05:36:27;;;;;;;22.48;20.35;;;;;;;;;;6253486;22;20015;-83
2023/06/10 05:38:53;;;;;;;97.15;91.07;;;;;;;;;;6306845;22;20030;-83
2023/06/10 05:41:20;;;;;;;291.15;273.67;;;;;;;;;;6278610;22;20011;-83
2023/06/10 05:43:46;;;;;;;355.63;333.80;;;;;;;;;;6278577;22;20007;-82
2023/06/10 05:46:12;;;;;;;520.55;484.08;;;;;;;;;;6306576;22;20018;-83
2023/06/10 05:48:38;;;;;;;679.10;627.72;;;;;;;;;;6306281;22;20133;-84
2023/06/10 05:51:04;;;;;;;872.28;797.08;;;;;;;;;;6278930;22;20346;-82
2023/06/10 05:53:30;;;;;;;1046.40;937.40;;;;;;;;;;6279085;22;20019;-83
2023/06/10 05:55:57;;;;;;;1315.90;999.90;;;;;;;;;;6305925;22;20018;-83
2023/06/10 05:58:24;;;;;;;1688.25;999.90;;;;;;;;;;6279606;22;20015;-85
2023/06/10 06:00:50;;;;;;;1935.65;999.90;;;;;;;;;;6280786;22;20015;-84
2023/06/10 06:03:16;;;;;;;1999.90;999.90;;;;;;;;;;6254900;22;20333;-84
2023/06/10 06:05:42;;;;;;;1999.90;999.90;;;;;;;;;;6254312;22;20007;-85
2023/06/10 06:08:08;;;;;;;1999.90;999.90;;;;;;;;;;6251559;22;20030;-86
2023/06/10 06:10:35;;;;;;;1999.90;999.90;;;;;;;;;;6278485;22;20011;-80
2023/06/10 06:13:01;;;;;;;1999.90;999.90;;;;;;;;;;6307680;22;20015;-86
2023/06/10 06:15:27;;;;;;;1999.90;999.90;;;;;;;;;;6280050;22;20026;-86
2023/06/10 06:17:53;;;;;;;1999.90;999.90;;;;;;;;;;6254683;22;20011;-84
2023/06/10 06:20:23;;;;;;;1999.90;999.90;;;;;;;;;;6280010;22;20018;-85
2023/06/10 06:22:49;;;;;;;1999.90;999.90;;;;;;;;;;6307196;22;20338;-86
2023/06/10 06:25:15;;;;;;;1999.90;999.90;;;;;;;;;;6280627;22;20076;-84
2023/06/10 06:27:41;;;;;;;1999.90;999.90;;;;;;;;;;6277579;22;20091;-86
2023/06/10 06:30:07;;;;;;;1999.90;999.90;;;;;;;;;;6278284;22;20013;-85
2023/06/10 06:32:33;;;;;;;1999.90;999.90;;;;;;;;;;6279200;22;20069;-84
2023/06/10 06:34:59;;;;;;;1999.90;999.90;;;;;;;;;;6254695;22;20338;-88
2023/06/10 06:37:26;;;;;;;1999.90;999.90;;;;;;;;;;6280051;22;20011;-80
2023/06/10 06:39:53;;;;;;;1999.90;999.90;;;;;;;;;;6307852;22;20330;-85
2023/06/10 06:42:19;;;;;;;1999.90;999.90;;;;;;;;;;6278745;22;20022;-87
2023/06/10 06:44:45;;;;;;;1999.90;999.90;;;;;;;;;;6256962;22;20022;-88
2023/06/10 06:47:11;;;;;;;1999.90;999.90;;;;;;;;;;6282184;22;20041;-87
2023/06/10 06:49:37;;;;;;;1999.90;999.90;;;;;;;;;;6283291;22;20019;-87
2023/06/10 06:52:04;;;;;;;1999.90;999.90;;;;;;;;;;6257290;22;20076;-87
2023/06/10 06:54:30;;;;;;;1999.90;999.90;;;;;;;;;;6284483;22;20434;-87
2023/06/10 06:56:56;;;;;;;1999.90;999.90;;;;;;;;;;6311915;22;20086;-88
2023/06/10 06:59:22;;;;;;;1999.90;999.90;;;;;;;;;;6258754;22;20431;-88
2023/06/10 07:01:48;;;;;;;1999.90;999.90;;;;;;;;;;6257373;22;20090;-88
2023/06/10 07:04:15;;;;;;;1999.90;999.90;;;;;;;;;;6310116;22;20094;-89
2023/06/10 07:06:42;;;;;;;1999.90;999.90;;;;;;;;;;6286394;22;20061;-91
2023/06/10 07:09:09;;;;;;;1999.90;999.90;;;;;;;;;;6256779;22;20015;-90
2023/06/10 07:11:35;;;;;;;1975.15;714.70;;;;;;;;;;6286417;22;20076;-87
2023/06/10 07:14:01;;;;;;;1999.90;999.90;;;;;;;;;;6280092;22;20015;-86
2023/06/10 07:16:27;;;;;;;1999.90;999.90;;;;;;;;;;6253814;22;20019;-86
2023/06/10 07:18:53;;;;;;;1999.90;999.90;;;;;;;;;;6307395;22;20063;-86
2023/06/10 07:21:19;;;;;;;1999.90;999.90;;;;;;;;;;6277918;22;20007;-85
2023/06/10 07:23:46;;;;;;;1999.90;999.90;;;;;;;;;;6306128;22;20090;-86
2023/06/10 07:26:13;;;;;;;1999.90;999.90;;;;;;;;;;6279310;22;20461;-87
2023/06/10 07:28:42;;;;;;;1999.90;999.90;;;;;;;;;;6254281;22;20022;-86
2023/06/10 07:31:08;;;;;;;1999.90;999.90;;;;;;;;;;6252139;22;20068;-85
2023/06/10 07:33:35;;;;;;;1999.90;999.90;;;;;;;;;;6281680;22;20033;-89
2023/06/10 07:36:01;;;;;;;1999.90;999.90;;;;;;;;;;6284373;22;20011;-89
2023/06/10 07:38:27;;;;;;;1999.90;999.90;;;;;;;;;;6285893;22;20104;-91
2023/06/10 07:40:53;;;;;;;1999.90;999.90;;;;;;;;;;6260248;22;20485;-86
2023/06/10 07:43:19;;;;;;;1999.90;999.90;;;;;;;;;;6286451;22;20063;-87
2023/06/10 07:45:45;;;;;;;1999.90;999.90;;;;;;;;;;6262519;22;20509;-90
2023/06/10 07:48:11;;;;;;;1999.90;999.90;;;;;;;;;;6271381;22;20015;-86
2023/06/10 07:50:37;;;;;;;1999.90;999.90;;;;;;;;;;6289268;22;20148;-89
2023/06/10 07:53:04;;;;;;;1999.90;999.90;;;;;;;;;;6263032;22;20015;-88
2023/06/10 07:55:31;;;;;;;1999.90;999.90;;;;;;;;;;6291664;22;20295;-93
2023/06/10 07:57:57;;;;;;;1999.90;999.90;;;;;;;;;;6284615;22;20090;-85
2023/06/10 08:00:23;;;;;;;1999.90;999.90;;;;;;;;;;6281451;22;20007;-85
2023/06/10 08:02:50;;;;;;;1999.90;999.90;;;;;;;;;;6254931;22;20049;-83
2023/06/10 08:05:16;;;;;;;1999.90;999.90;;;;;;;;;;6250793;22;20015;-84
2023/06/10 08:07:43;;;;;;;1999.90;999.90;;;;;;;;;;6301023;22;20024;-84
2023/06/10 08:10:09;;;;;;;1999.90;999.90;;;;;;;;;;6300615;22;20015;-84
2023/06/10 08:12:35;;;;;;;1999.90;999.90;;;;;;;;;;6273969;22;20011;-84
2023/06/10 08:15:01;;;;;;;1999.90;999.90;;;;;;;;;;6248981;22;20023;-84
2023/06/10 08:17:27;;;;;;;1999.90;999.90;;;;;;;;;;6274482;22;20026;-84
2023/06/10 08:19:53;;;;;;;1999.90;999.90;;;;;;;;;;6275148;22;20011;-84
2023/06/10 08:22:19;;;;;;;1999.90;999.90;;;;;;;;;;6274425;22;20450;-84
2023/06/10 08:24:45;;;;;;;1999.90;999.90;;;;;;;;;;6301224;22;20079;-84
2023/06/10 08:27:11;;;;;;;1999.90;999.90;;;;;;;;;;6273908;22;20069;-85
2023/06/10 08:29:37;;;;;;;1999.90;999.90;;;;;;;;;;6274252;22;20011;-84
2023/06/10 08:32:03;;;;;;;1621.15;766.85;;;;;;;;;;6302701;22;20064;-85
2023/06/10 08:34:29;;;;;;;1999.90;999.90;;;;;;;;;;6250306;22;20518;-84
2023/06/10 08:36:55;;;;;;;1999.90;999.90;;;;;;;;;;6252899;22;20019;-84
2023/06/10 08:39:22;;;;;;;1999.90;999.90;;;;;;;;;;6305509;22;20068;-84
2023/06/10 08:41:54;;;;;;;1999.90;999.90;;;;;;;;;;6305966;22;20023;-84
2023/06/10 08:44:26;;;;;;;1816.70;827.28;;;;;;;;;;6278274;22;20439;-84
2023/06/10 08:46:53;;;;;;;1999.90;999.90;;;;;;;;;;6278334;22;20093;-85
2023/06/10 08:49:20;;;;;;;1999.90;978.03;;;;;;;;;;6278200;22;20383;-85
2023/06/10 08:51:49;;;;;;;1999.90;993.55;;;;;;;;;;6278845;22;20011;-84
2023/06/10 08:54:20;;;;;;;1999.90;999.90;;;;;;;;;;6277289;22;20246;-84
2023/06/10 08:56:48;;;;;;;1999.90;999.90;;;;;;;;;;6278164;22;20016;-85
2023/06/10 08:59:16;;;;;;;1999.90;999.90;;;;;;;;;;6277982;22;20015;-84
2023/06/10 09:01:42;;;;;;;1999.90;999.90;;;;;;;;;;6278038;22;20086;-84
2023/06/10 09:04:08;;;;;;;1999.90;999.90;;;;;;;;;;6305673;22;20358;-84
2023/06/10 09:06:36;;;;;;;1999.90;999.90;;;;;;;;;;6277490;22;20011;-83
2023/06/10 09:09:02;;;;;;;1999.90;986.80;;;;;;;;;;6305721;22;20022;-84
2023/06/10 09:11:28;;;;;;;1999.90;999.90;;;;;;;;;;6278177;22;20015;-84
2023/06/10 09:13:54;;;;;;;1999.90;999.90;;;;;;;;;;6278154;22;20011;-84
2023/06/10 09:16:20;;;;;;;1999.90;999.90;;;;;;;;;;6277811;22;20038;-84
2023/06/10 09:18:46;;;;;;;1999.90;999.90;;;;;;;;;;6252283;22;20011;-84
2023/06/10 09:21:12;;;;;;;1999.90;999.90;;;;;;;;;;6251703;22;20299;-85
2023/06/10 09:23:38;;;;;;;1999.90;999.90;;;;;;;;;;6278162;22;20093;-84
2023/06/10 09:26:08;;;;;;;1999.90;999.90;;;;;;;;;;6305598;22;20156;-84
2023/06/10 09:28:34;;;;;;;1999.90;999.90;;;;;;;;;;6252134;22;20042;-85
2023/06/10 09:31:05;;;;;;;1999.90;999.90;;;;;;;;;;6305351;22;20019;-84
2023/06/10 09:33:31;;;;;;;1999.90;999.90;;;;;;;;;;6305262;22;20315;-84
2023/06/10 09:36:00;;;;;;;1999.90;999.90;;;;;;;;;;6304882;22;20038;-84
2023/06/10 09:38:30;;;;;;;1999.90;999.90;;;;;;;;;;6277621;22;20073;-84
2023/06/10 09:40:56;;;;;;;1999.90;999.90;;;;;;;;;;6277981;22;20014;-84
2023/06/10 09:43:22;;;;;;;1999.90;999.90;;;;;;;;;;6252273;22;20090;-84
2023/06/10 09:45:54;;;;;;;1999.90;999.90;;;;;;;;;;6277537;22;20061;-85
2023/06/10 09:48:21;;;;;;;1999.90;999.90;;;;;;;;;;6277534;22;20076;-84
2023/06/10 09:50:47;;;;;;;1999.90;999.90;;;;;;;;;;6276965;22;20011;-85
2023/06/10 09:53:13;;;;;;;1999.90;999.90;;;;;;;;;;6305200;22;20035;-84
2023/06/10 09:55:40;;;;;;;1999.90;999.90;;;;;;;;;;6251699;22;20061;-84
2023/06/10 09:58:06;;;;;;;1999.90;999.90;;;;;;;;;;6252207;22;20019;-84
2023/06/10 10:00:35;;;;;;;1999.90;999.90;;;;;;;;;;6305386;22;20007;-84
2023/06/10 10:03:01;;;;;;;1999.90;999.90;;;;;;;;;;6278041;22;20414;-84
2023/06/10 10:05:27;;;;;;;1999.90;999.90;;;;;;;;;;6277029;22;20476;-85
2023/06/10 10:07:56;;;;;;;1999.90;999.90;;;;;;;;;;6277872;22;20053;-84
2023/06/10 10:10:22;;;;;;;1999.90;999.90;;;;;;;;;;6277398;22;20083;-84
2023/06/10 10:12:48;;;;;;;1999.90;999.90;;;;;;;;;;6251871;22;20007;-84
2023/06/10 10:15:17;;;;;;;1999.90;999.90;;;;;;;;;;6277658;22;20011;-85
2023/06/10 10:17:45;;;;;;;1999.90;999.90;;;;;;;;;;6304755;22;20013;-84
2023/06/10 10:20:13;;;;;;;1999.90;999.90;;;;;;;;;;6277094;22;20011;-85
2023/06/10 10:22:40;;;;;;;1999.90;999.90;;;;;;;;;;6251664;22;20011;-84
2023/06/10 10:25:08;;;;;;;1999.90;999.90;;;;;;;;;;6304939;22;20016;-84
2023/06/10 10:27:36;;;;;;;1999.90;999.90;;;;;;;;;;6277092;22;20012;-84
2023/06/10 10:30:08;;;;;;;1999.90;999.90;;;;;;;;;;6277149;22;20040;-84
2023/06/10 10:33:01;;;;;;;1999.90;999.90;;;;;;;;;;6304587;22;20109;-85
2023/06/10 10:35:27;;;;;;;1999.90;999.90;;;;;;;;;;6298140;22;20074;-84
2023/06/10 10:37:54;;;;;;;1999.90;999.90;;;;;;;;;;6276764;22;20012;-84
2023/06/10 10:40:24;;;;;;;1999.90;999.90;;;;;;;;;;6281177;22;20098;-84
2023/06/10 10:42:51;;;;;;;1999.90;999.90;;;;;;;;;;6307256;22;20518;-84
2023/06/10 10:45:17;;;;;;;1999.90;999.90;;;;;;;;;;6309168;22;20379;-85
2023/06/10 10:47:45;;;;;;;1999.90;999.90;;;;;;;;;;6280211;22;20015;-86
2023/06/10 10:50:15;;;;;;;1999.90;999.90;;;;;;;;;;6278767;22;20011;-82
2023/06/10 10:52:48;;;;;;;1999.90;999.90;;;;;;;;;;6255601;22;20014;-88
2023/06/10 10:55:14;;;;;;;1999.90;999.90;;;;;;;;;;6280498;22;20029;-84
2023/06/10 10:57:40;;;;;;;1999.90;999.90;;;;;;;;;;6307276;22;20023;-86
2023/06/10 11:00:07;;;;;;;1999.90;999.90;;;;;;;;;;6280227;22;20012;-86
2023/06/10 11:02:38;;;;;;;1999.90;999.90;;;;;;;;;;6280986;22;20012;-86
2023/06/10 11:05:05;;;;;;;1999.90;999.90;;;;;;;;;;6282252;22;20091;-88
2023/06/10 11:07:31;;;;;;;1999.90;999.90;;;;;;;;;;6281030;22;20018;-86
2023/06/10 11:10:00;;;;;;;1999.90;999.90;;;;;;;;;;6280073;22;20029;-85
2023/06/10 11:12:39;;;;;;;1999.90;999.90;;;;;;;;;;6255400;22;20474;-86
2023/06/10 11:15:05;;;;;;;1999.90;999.90;;;;;;;;;;6280876;22;20033;-84
2023/06/10 11:17:31;;;;;;;1999.90;999.90;;;;;;;;;;6309705;22;20011;-84
2023/06/10 11:19:59;;;;;;;1999.90;999.90;;;;;;;;;;6309953;22;20018;-84
2023/06/10 11:22:26;;;;;;;1999.90;999.90;;;;;;;;;;6281170;22;20011;-83
2023/06/10 11:24:52;;;;;;;1999.90;999.90;;;;;;;;;;6281856;22;20015;-82
2023/06/10 11:27:19;;;;;;;1999.90;999.90;;;;;;;;;;6281028;22;20011;-82
2023/06/10 11:30:03;;;;;;;1999.90;999.90;;;;;;;;;;6306770;22;20026;-81
2023/06/10 11:32:33;;;;;;;1999.90;999.90;;;;;;;;;;6278661;22;20030;-85
2023/06/10 11:34:59;;;;;;;1999.90;999.90;;;;;;;;;;6260914;22;20046;-96
2023/06/10 11:37:26;;;;;;;1999.90;999.90;;;;;;;;;;6267435;22;20012;-95
2023/06/10 11:39:53;;;;;;;1999.90;999.90;;;;;;;;;;6259881;22;20102;-86
2023/06/10 11:42:19;;;;;;;1999.90;999.90;;;;;;;;;;6309480;22;20064;-81
2023/06/10 11:44:52;;;;;;;1999.90;999.90;;;;;;;;;;6256779;22;20116;-87
2023/06/10 11:47:22;;;;;;;1999.90;999.90;;;;;;;;;;6281857;22;20076;-87
2023/06/10 11:49:56;;;;;;;1999.90;999.90;;;;;;;;;;6258861;22;20008;-83
2023/06/10 11:52:31;;;;;;;1999.90;999.90;;;;;;;;;;6279712;22;20011;-83
2023/06/10 11:54:57;;;;;;;1999.90;999.90;;;;;;;;;;6279427;22;20119;-83
2023/06/10 11:57:23;;;;;;;1999.90;999.90;;;;;;;;;;6280096;22;20011;-85
2023/06/10 11:59:49;;;;;;;1999.90;999.90;;;;;;;;;;6280285;22;20012;-85
2023/06/10 12:02:19;;;;;;;1999.90;999.90;;;;;;;;;;6308271;22;20146;-84
2023/06/10 12:04:45;;;;;;;1999.90;999.90;;;;;;;;;;6279665;22;20011;-86
2023/06/10 12:07:18;;;;;;;1999.90;999.90;;;;;;;;;;6254865;22;20283;-85
2023/06/10 12:09:47;;;;;;;1999.90;999.90;;;;;;;;;;6270071;22;20022;-84
2023/06/10 12:12:14;;;;;;;1999.90;999.90;;;;;;;;;;6276605;22;20034;-77
2023/06/10 12:14:56;;;;;;;1999.90;999.90;;;;;;;;;;6304547;22;20025;-75
2023/06/10 12:17:42;;;;;;;1999.90;999.90;;;;;;;;;;6304036;22;20142;-76
2023/06/10 12:20:11;;;;;;;1999.90;999.90;;;;;;;;;;6304829;22;20015;-77
2023/06/10 12:22:41;;;;;;;1999.90;999.90;;;;;;;;;;6272421;22;20468;-76
2023/06/10 12:25:08;;;;;;;1999.90;999.90;;;;;;;;;;6304569;22;20007;-76
2023/06/10 12:27:35;;;;;;;1999.90;999.90;;;;;;;;;;6304494;22;20511;-75
2023/06/10 12:30:04;;;;;;;1999.90;999.90;;;;;;;;;;6304293;22;20022;-79
2023/06/10 12:32:43;;;;;;;1999.90;999.90;;;;;;;;;;6304183;22;20038;-76
2023/06/10 12:35:10;;;;;;;1999.90;999.90;;;;;;;;;;6277039;22;20086;-76
2023/06/10 12:37:39;;;;;;;1999.90;999.90;;;;;;;;;;6271859;22;20019;-75
2023/06/10 12:40:11;;;;;;;1999.90;999.90;;;;;;;;;;6247835;22;20098;-81
2023/06/10 12:42:38;;;;;;;1999.90;999.90;;;;;;;;;;6248291;22;20011;-78
2023/06/10 12:45:05;;;;;;;1999.90;999.90;;;;;;;;;;6272690;22;20014;-79
2023/06/10 12:47:35;;;;;;;1999.90;999.90;;;;;;;;;;6301339;22;20023;-77
2023/06/10 12:50:02;;;;;;;1999.90;999.90;;;;;;;;;;6273895;22;20093;-78
2023/06/10 12:52:28;;;;;;;1999.90;999.90;;;;;;;;;;6269407;22;20011;-77
2023/06/10 12:54:54;;;;;;;1999.90;999.90;;;;;;;;;;6274498;22;20073;-78
2023/06/10 12:57:21;;;;;;;1999.90;999.90;;;;;;;;;;6275783;22;20518;-77
2023/06/10 12:59:52;;;;;;;1999.90;999.90;;;;;;;;;;6274607;22;20018;-78
2023/06/10 13:02:19;;;;;;;1999.90;999.90;;;;;;;;;;6275281;22;20113;-77
2023/06/10 13:04:45;;;;;;;1999.90;999.90;;;;;;;;;;6276159;22;20023;-77
2023/06/10 13:07:11;;;;;;;1999.90;999.90;;;;;;;;;;6274815;22;20012;-78
2023/06/10 13:09:37;;;;;;;1999.90;999.90;;;;;;;;;;6305578;22;20117;-78
2023/06/10 13:12:03;;;;;;;1999.90;999.90;;;;;;;;;;6276531;22;20090;-83
2023/06/10 13:14:29;;;;;;;1999.90;999.90;;;;;;;;;;6275137;22;20066;-83
2023/06/10 13:16:56;;;;;;;1999.90;999.90;;;;;;;;;;6303577;22;20049;-82
2023/06/10 13:19:22;;;;;;;1999.90;999.90;;;;;;;;;;6276418;22;20023;-80
2023/06/10 13:21:48;;;;;;;1999.90;999.90;;;;;;;;;;6276526;22;20334;-80
2023/06/10 13:24:14;;;;;;;1999.90;999.90;;;;;;;;;;6249981;22;20050;-80
2023/06/10 13:26:41;;;;;;;1999.90;999.90;;;;;;;;;;6250485;22;20273;-81
2023/06/10 13:29:07;;;;;;;1999.90;999.90;;;;;;;;;;6249845;22;20015;-79
2023/06/10 13:31:34;;;;;;;1999.90;999.90;;;;;;;;;;6250422;22;20062;-79
2023/06/10 13:34:00;;;;;;;1999.90;999.90;;;;;;;;;;6275969;22;20045;-80
2023/06/10 13:36:26;;;;;;;1999.90;999.90;;;;;;;;;;6249717;22;20011;-82
2023/06/10 13:38:52;;;;;;;1999.90;999.90;;;;;;;;;;6266140;22;20011;-83
2023/06/10 13:41:18;;;;;;;1999.90;999.90;;;;;;;;;;6274063;22;20065;-81
2023/06/10 13:43:44;;;;;;;1999.90;999.90;;;;;;;;;;6300302;22;20117;-82
2023/06/10 13:46:10;;;;;;;1999.90;999.90;;;;;;;;;;6248533;22;20323;-84
2023/06/10 13:48:36;;;;;;;1999.90;999.90;;;;;;;;;;6248367;22;20101;-78
2023/06/10 13:51:02;;;;;;;1999.90;999.90;;;;;;;;;;6274664;22;20111;-80
2023/06/10 13:53:28;;;;;;;1999.90;999.90;;;;;;;;;;6243157;22;20019;-84
2023/06/10 13:55:54;;;;;;;1999.90;999.90;;;;;;;;;;6273954;22;20015;-83